sensor_id;sensor_type;location;lat;lon;timestamp;P1;durP1;ratioP1;P2;durP2;ratioP2
84757;SDS011;74981;52.476;16.656;2024-03-29T00:04:18;4.10;;;1.40;;
84757;SDS011;74981;52.476;16.656;2024-03-29T00:09:21;4.80;;;1.80;;
84757;SDS011;74981;52.476;16.656;2024-03-29T00:14:23;3.70;;;3.00;;
84757;SDS011;74981;52.476;16.656;2024-03-29T00:19:26;3.90;;;2.60;;
84757;SDS011;74981;52.476;16.656;2024-03-29T00:24:29;3.70;;;2.30;;
84757;SDS011;74981;52.476;16.656;2024-03-29T00:29:31;4.10;;;3.30;;
84757;SDS011;74981;52.476;16.656;2024-03-29T00:34:34;6.20;;;3.50;;
84757;SDS011;74981;52.476;16.656;2024-03-29T00:39:36;5.40;;;2.50;;
84757;SDS011;74981;52.476;16.656;2024-03-29T00:44:39;4.00;;;2.40;;
84757;SDS011;74981;52.476;16.656;2024-03-29T00:49:42;4.60;;;2.90;;
84757;SDS011;74981;52.476;16.656;2024-03-29T00:54:44;5.10;;;3.50;;
84757;SDS011;74981;52.476;16.656;2024-03-29T00:59:47;4.90;;;2.20;;
84757;SDS011;74981;52.476;16.656;2024-03-29T01:04:50;5.00;;;1.70;;
84757;SDS011;74981;52.476;16.656;2024-03-29T01:09:53;6.10;;;5.60;;
84757;SDS011;74981;52.476;16.656;2024-03-29T01:14:55;6.70;;;3.10;;
84757;SDS011;74981;52.476;16.656;2024-03-29T01:19:58;5.00;;;2.60;;
84757;SDS011;74981;52.476;16.656;2024-03-29T01:25:00;4.60;;;3.80;;
84757;SDS011;74981;52.476;16.656;2024-03-29T01:30:04;3.60;;;2.50;;
84757;SDS011;74981;52.476;16.656;2024-03-29T01:35:08;3.70;;;1.90;;
84757;SDS011;74981;52.476;16.656;2024-03-29T01:40:12;4.60;;;1.90;;
84757;SDS011;74981;52.476;16.656;2024-03-29T01:45:14;6.30;;;1.80;;
84757;SDS011;74981;52.476;16.656;2024-03-29T01:50:17;3.50;;;1.70;;
84757;SDS011;74981;52.476;16.656;2024-03-29T01:55:20;5.10;;;3.60;;
84757;SDS011;74981;52.476;16.656;2024-03-29T02:00:23;3.60;;;3.10;;
84757;SDS011;74981;52.476;16.656;2024-03-29T02:05:27;3.20;;;2.80;;
84757;SDS011;74981;52.476;16.656;2024-03-29T02:10:31;3.60;;;1.40;;
84757;SDS011;74981;52.476;16.656;2024-03-29T02:15:34;3.10;;;2.10;;
84757;SDS011;74981;52.476;16.656;2024-03-29T02:20:36;2.60;;;1.80;;
84757;SDS011;74981;52.476;16.656;2024-03-29T02:25:39;3.50;;;2.40;;
84757;SDS011;74981;52.476;16.656;2024-03-29T02:30:42;3.40;;;2.20;;
84757;SDS011;74981;52.476;16.656;2024-03-29T02:35:44;2.30;;;1.40;;
84757;SDS011;74981;52.476;16.656;2024-03-29T02:40:47;2.10;;;1.20;;
84757;SDS011;74981;52.476;16.656;2024-03-29T02:45:50;1.70;;;1.30;;
84757;SDS011;74981;52.476;16.656;2024-03-29T02:50:52;3.30;;;2.20;;
84757;SDS011;74981;52.476;16.656;2024-03-29T02:55:55;3.70;;;2.20;;
84757;SDS011;74981;52.476;16.656;2024-03-29T03:00:57;2.60;;;1.00;;
84757;SDS011;74981;52.476;16.656;2024-03-29T03:06:08;2.10;;;1.40;;
84757;SDS011;74981;52.476;16.656;2024-03-29T03:11:10;2.30;;;1.20;;
84757;SDS011;74981;52.476;16.656;2024-03-29T03:16:13;3.20;;;2.80;;
84757;SDS011;74981;52.476;16.656;2024-03-29T03:21:16;1.70;;;0.90;;
84757;SDS011;74981;52.476;16.656;2024-03-29T03:26:18;2.70;;;2.10;;
84757;SDS011;74981;52.476;16.656;2024-03-29T03:31:21;2.90;;;2.20;;
84757;SDS011;74981;52.476;16.656;2024-03-29T03:36:23;2.60;;;2.40;;
84757;SDS011;74981;52.476;16.656;2024-03-29T03:41:26;3.40;;;2.90;;
84757;SDS011;74981;52.476;16.656;2024-03-29T03:46:29;3.90;;;2.30;;
84757;SDS011;74981;52.476;16.656;2024-03-29T03:51:31;3.70;;;2.40;;
84757;SDS011;74981;52.476;16.656;2024-03-29T03:56:34;4.30;;;2.10;;
84757;SDS011;74981;52.476;16.656;2024-03-29T04:01:36;3.40;;;2.60;;
84757;SDS011;74981;52.476;16.656;2024-03-29T04:06:39;4.80;;;2.00;;
84757;SDS011;74981;52.476;16.656;2024-03-29T04:11:41;2.90;;;1.40;;
84757;SDS011;74981;52.476;16.656;2024-03-29T04:16:46;3.60;;;3.00;;
84757;SDS011;74981;52.476;16.656;2024-03-29T04:21:48;3.80;;;2.10;;
84757;SDS011;74981;52.476;16.656;2024-03-29T04:26:51;5.00;;;1.60;;
84757;SDS011;74981;52.476;16.656;2024-03-29T04:31:54;3.90;;;1.80;;
84757;SDS011;74981;52.476;16.656;2024-03-29T04:36:56;4.30;;;2.60;;
84757;SDS011;74981;52.476;16.656;2024-03-29T04:41:59;5.80;;;5.20;;
84757;SDS011;74981;52.476;16.656;2024-03-29T04:47:01;5.60;;;3.10;;
84757;SDS011;74981;52.476;16.656;2024-03-29T04:52:05;4.30;;;3.00;;
84757;SDS011;74981;52.476;16.656;2024-03-29T04:57:08;4.20;;;2.20;;
84757;SDS011;74981;52.476;16.656;2024-03-29T05:02:10;4.00;;;2.50;;
84757;SDS011;74981;52.476;16.656;2024-03-29T05:07:13;2.30;;;1.70;;
84757;SDS011;74981;52.476;16.656;2024-03-29T05:12:15;3.70;;;2.00;;
84757;SDS011;74981;52.476;16.656;2024-03-29T05:17:18;3.00;;;1.40;;
84757;SDS011;74981;52.476;16.656;2024-03-29T05:22:21;3.10;;;2.10;;
84757;SDS011;74981;52.476;16.656;2024-03-29T05:27:25;4.30;;;1.60;;
84757;SDS011;74981;52.476;16.656;2024-03-29T05:32:29;4.00;;;1.10;;
84757;SDS011;74981;52.476;16.656;2024-03-29T05:37:32;3.20;;;1.40;;
84757;SDS011;74981;52.476;16.656;2024-03-29T05:42:35;2.70;;;1.30;;
84757;SDS011;74981;52.476;16.656;2024-03-29T05:47:38;2.80;;;1.50;;
84757;SDS011;74981;52.476;16.656;2024-03-29T05:57:43;4.30;;;1.50;;
84757;SDS011;74981;52.476;16.656;2024-03-29T06:02:46;3.80;;;1.90;;
84757;SDS011;74981;52.476;16.656;2024-03-29T06:07:49;3.70;;;1.90;;
84757;SDS011;74981;52.476;16.656;2024-03-29T06:12:52;3.20;;;1.60;;
84757;SDS011;74981;52.476;16.656;2024-03-29T06:17:55;3.90;;;1.70;;
84757;SDS011;74981;52.476;16.656;2024-03-29T06:22:58;3.90;;;1.60;;
84757;SDS011;74981;52.476;16.656;2024-03-29T06:28:00;3.30;;;1.40;;
84757;SDS011;74981;52.476;16.656;2024-03-29T06:33:03;4.60;;;1.40;;
84757;SDS011;74981;52.476;16.656;2024-03-29T06:38:06;4.30;;;1.70;;
84757;SDS011;74981;52.476;16.656;2024-03-29T06:43:09;4.80;;;1.70;;
84757;SDS011;74981;52.476;16.656;2024-03-29T06:48:12;4.40;;;2.20;;
84757;SDS011;74981;52.476;16.656;2024-03-29T06:53:15;3.60;;;1.60;;
84757;SDS011;74981;52.476;16.656;2024-03-29T06:58:17;4.70;;;1.80;;
84757;SDS011;74981;52.476;16.656;2024-03-29T07:03:20;4.70;;;2.60;;
84757;SDS011;74981;52.476;16.656;2024-03-29T07:08:23;5.00;;;3.00;;
84757;SDS011;74981;52.476;16.656;2024-03-29T07:13:25;3.70;;;2.00;;
84757;SDS011;74981;52.476;16.656;2024-03-29T07:18:30;6.20;;;2.00;;
84757;SDS011;74981;52.476;16.656;2024-03-29T07:23:32;5.50;;;2.60;;
84757;SDS011;74981;52.476;16.656;2024-03-29T07:28:35;4.20;;;2.20;;
84757;SDS011;74981;52.476;16.656;2024-03-29T07:33:37;4.10;;;1.90;;
84757;SDS011;74981;52.476;16.656;2024-03-29T07:38:40;6.00;;;2.40;;
84757;SDS011;74981;52.476;16.656;2024-03-29T07:43:51;4.40;;;1.90;;
84757;SDS011;74981;52.476;16.656;2024-03-29T07:48:54;5.50;;;2.30;;
84757;SDS011;74981;52.476;16.656;2024-03-29T07:53:56;5.60;;;2.00;;
84757;SDS011;74981;52.476;16.656;2024-03-29T07:58:59;5.30;;;1.80;;
84757;SDS011;74981;52.476;16.656;2024-03-29T08:04:01;3.60;;;1.90;;
84757;SDS011;74981;52.476;16.656;2024-03-29T08:09:04;4.00;;;1.80;;
84757;SDS011;74981;52.476;16.656;2024-03-29T08:14:07;5.10;;;2.30;;
84757;SDS011;74981;52.476;16.656;2024-03-29T08:19:09;5.60;;;2.30;;
84757;SDS011;74981;52.476;16.656;2024-03-29T08:24:11;4.50;;;2.30;;
84757;SDS011;74981;52.476;16.656;2024-03-29T08:29:14;2.90;;;1.20;;
84757;SDS011;74981;52.476;16.656;2024-03-29T08:34:16;6.20;;;2.50;;
84757;SDS011;74981;52.476;16.656;2024-03-29T08:39:19;3.60;;;1.50;;
84757;SDS011;74981;52.476;16.656;2024-03-29T08:44:21;3.50;;;1.30;;
84757;SDS011;74981;52.476;16.656;2024-03-29T08:49:23;5.10;;;1.70;;
84757;SDS011;74981;52.476;16.656;2024-03-29T08:54:26;4.80;;;1.90;;
84757;SDS011;74981;52.476;16.656;2024-03-29T08:59:28;4.60;;;1.70;;
84757;SDS011;74981;52.476;16.656;2024-03-29T09:04:31;5.70;;;2.00;;
84757;SDS011;74981;52.476;16.656;2024-03-29T09:09:34;3.40;;;1.20;;
84757;SDS011;74981;52.476;16.656;2024-03-29T09:14:36;4.50;;;1.60;;
84757;SDS011;74981;52.476;16.656;2024-03-29T09:19:39;3.40;;;1.20;;
84757;SDS011;74981;52.476;16.656;2024-03-29T09:24:41;3.70;;;1.20;;
84757;SDS011;74981;52.476;16.656;2024-03-29T09:29:47;6.60;;;1.40;;
84757;SDS011;74981;52.476;16.656;2024-03-29T09:34:49;5.70;;;1.60;;
84757;SDS011;74981;52.476;16.656;2024-03-29T09:39:52;3.90;;;1.10;;
84757;SDS011;74981;52.476;16.656;2024-03-29T09:44:55;3.10;;;1.10;;
84757;SDS011;74981;52.476;16.656;2024-03-29T09:50:01;4.60;;;1.00;;
84757;SDS011;74981;52.476;16.656;2024-03-29T09:55:05;3.90;;;1.40;;
84757;SDS011;74981;52.476;16.656;2024-03-29T10:00:10;5.80;;;1.20;;
84757;SDS011;74981;52.476;16.656;2024-03-29T10:05:14;2.60;;;1.20;;
84757;SDS011;74981;52.476;16.656;2024-03-29T10:10:17;4.90;;;1.20;;
84757;SDS011;74981;52.476;16.656;2024-03-29T10:15:20;2.40;;;0.90;;
84757;SDS011;74981;52.476;16.656;2024-03-29T10:20:22;4.30;;;1.00;;
84757;SDS011;74981;52.476;16.656;2024-03-29T10:30:27;3.90;;;1.10;;
84757;SDS011;74981;52.476;16.656;2024-03-29T10:35:31;3.30;;;1.90;;
84757;SDS011;74981;52.476;16.656;2024-03-29T10:40:34;3.90;;;1.00;;
84757;SDS011;74981;52.476;16.656;2024-03-29T10:45:39;3.80;;;1.40;;
84757;SDS011;74981;52.476;16.656;2024-03-29T10:50:42;3.70;;;1.10;;
84757;SDS011;74981;52.476;16.656;2024-03-29T10:55:47;4.50;;;0.90;;
84757;SDS011;74981;52.476;16.656;2024-03-29T11:00:53;3.90;;;1.00;;
84757;SDS011;74981;52.476;16.656;2024-03-29T11:06:01;3.40;;;1.60;;
84757;SDS011;74981;52.476;16.656;2024-03-29T11:11:05;7.50;;;1.10;;
84757;SDS011;74981;52.476;16.656;2024-03-29T11:16:10;2.70;;;0.70;;
84757;SDS011;74981;52.476;16.656;2024-03-29T11:21:13;3.50;;;1.30;;
84757;SDS011;74981;52.476;16.656;2024-03-29T11:26:16;3.40;;;1.00;;
84757;SDS011;74981;52.476;16.656;2024-03-29T11:31:23;3.30;;;1.50;;
84757;SDS011;74981;52.476;16.656;2024-03-29T11:36:28;3.00;;;0.90;;
84757;SDS011;74981;52.476;16.656;2024-03-29T11:41:30;4.10;;;0.90;;
84757;SDS011;74981;52.476;16.656;2024-03-29T11:46:33;3.70;;;0.70;;
84757;SDS011;74981;52.476;16.656;2024-03-29T11:51:40;3.80;;;1.50;;
84757;SDS011;74981;52.476;16.656;2024-03-29T11:56:43;4.00;;;0.90;;
84757;SDS011;74981;52.476;16.656;2024-03-29T12:01:54;2.40;;;0.90;;
84757;SDS011;74981;52.476;16.656;2024-03-29T12:06:58;2.50;;;0.70;;
84757;SDS011;74981;52.476;16.656;2024-03-29T12:17:09;3.40;;;1.80;;
84757;SDS011;74981;52.476;16.656;2024-03-29T12:22:12;2.70;;;0.80;;
84757;SDS011;74981;52.476;16.656;2024-03-29T12:27:14;4.00;;;1.10;;
84757;SDS011;74981;52.476;16.656;2024-03-29T12:32:19;4.10;;;1.40;;
84757;SDS011;74981;52.476;16.656;2024-03-29T12:42:23;3.50;;;0.90;;
84757;SDS011;74981;52.476;16.656;2024-03-29T12:47:26;3.30;;;1.20;;
84757;SDS011;74981;52.476;16.656;2024-03-29T12:52:35;5.50;;;2.00;;
84757;SDS011;74981;52.476;16.656;2024-03-29T12:57:39;3.20;;;0.80;;
84757;SDS011;74981;52.476;16.656;2024-03-29T13:02:42;4.00;;;1.60;;
84757;SDS011;74981;52.476;16.656;2024-03-29T13:07:44;5.10;;;1.10;;
84757;SDS011;74981;52.476;16.656;2024-03-29T13:12:47;3.70;;;1.00;;
84757;SDS011;74981;52.476;16.656;2024-03-29T13:17:50;4.70;;;1.20;;
84757;SDS011;74981;52.476;16.656;2024-03-29T13:22:54;3.60;;;1.20;;
84757;SDS011;74981;52.476;16.656;2024-03-29T13:27:56;3.40;;;1.10;;
84757;SDS011;74981;52.476;16.656;2024-03-29T13:32:59;3.90;;;1.20;;
84757;SDS011;74981;52.476;16.656;2024-03-29T13:38:01;3.80;;;1.60;;
84757;SDS011;74981;52.476;16.656;2024-03-29T13:43:04;5.90;;;1.90;;
84757;SDS011;74981;52.476;16.656;2024-03-29T13:48:07;6.00;;;4.00;;
84757;SDS011;74981;52.476;16.656;2024-03-29T13:53:10;4.40;;;1.20;;
84757;SDS011;74981;52.476;16.656;2024-03-29T13:58:12;4.70;;;1.00;;
84757;SDS011;74981;52.476;16.656;2024-03-29T14:03:14;2.60;;;0.80;;
84757;SDS011;74981;52.476;16.656;2024-03-29T14:08:17;6.20;;;1.40;;
84757;SDS011;74981;52.476;16.656;2024-03-29T14:13:19;4.90;;;1.50;;
84757;SDS011;74981;52.476;16.656;2024-03-29T14:18:22;6.10;;;1.40;;
84757;SDS011;74981;52.476;16.656;2024-03-29T14:23:24;4.60;;;2.00;;
84757;SDS011;74981;52.476;16.656;2024-03-29T14:28:27;4.30;;;1.20;;
84757;SDS011;74981;52.476;16.656;2024-03-29T14:33:29;4.90;;;2.00;;
84757;SDS011;74981;52.476;16.656;2024-03-29T14:38:32;4.30;;;2.40;;
84757;SDS011;74981;52.476;16.656;2024-03-29T14:43:34;5.00;;;1.70;;
84757;SDS011;74981;52.476;16.656;2024-03-29T14:48:37;3.90;;;1.40;;
84757;SDS011;74981;52.476;16.656;2024-03-29T14:53:40;5.30;;;2.30;;
84757;SDS011;74981;52.476;16.656;2024-03-29T14:58:42;7.60;;;1.90;;
84757;SDS011;74981;52.476;16.656;2024-03-29T15:03:45;11.70;;;4.70;;
84757;SDS011;74981;52.476;16.656;2024-03-29T15:08:47;7.80;;;3.10;;
84757;SDS011;74981;52.476;16.656;2024-03-29T15:13:50;7.60;;;3.50;;
84757;SDS011;74981;52.476;16.656;2024-03-29T15:18:53;5.20;;;1.60;;
84757;SDS011;74981;52.476;16.656;2024-03-29T15:23:55;12.10;;;2.70;;
84757;SDS011;74981;52.476;16.656;2024-03-29T15:28:58;3.10;;;1.40;;
84757;SDS011;74981;52.476;16.656;2024-03-29T15:34:00;9.50;;;2.40;;
84757;SDS011;74981;52.476;16.656;2024-03-29T15:39:03;4.30;;;1.20;;
84757;SDS011;74981;52.476;16.656;2024-03-29T15:44:06;1.80;;;0.80;;
84757;SDS011;74981;52.476;16.656;2024-03-29T15:49:09;7.20;;;2.20;;
84757;SDS011;74981;52.476;16.656;2024-03-29T15:54:11;5.70;;;1.40;;
84757;SDS011;74981;52.476;16.656;2024-03-29T15:59:14;4.90;;;2.30;;
84757;SDS011;74981;52.476;16.656;2024-03-29T16:04:16;4.70;;;1.10;;
84757;SDS011;74981;52.476;16.656;2024-03-29T16:09:19;5.00;;;1.70;;
84757;SDS011;74981;52.476;16.656;2024-03-29T16:14:21;10.80;;;3.20;;
84757;SDS011;74981;52.476;16.656;2024-03-29T16:19:24;5.00;;;2.60;;
84757;SDS011;74981;52.476;16.656;2024-03-29T16:24:27;4.70;;;1.70;;
84757;SDS011;74981;52.476;16.656;2024-03-29T16:29:29;5.90;;;1.80;;
84757;SDS011;74981;52.476;16.656;2024-03-29T16:34:32;7.20;;;2.80;;
84757;SDS011;74981;52.476;16.656;2024-03-29T16:39:34;7.00;;;2.50;;
84757;SDS011;74981;52.476;16.656;2024-03-29T16:44:37;3.60;;;1.20;;
84757;SDS011;74981;52.476;16.656;2024-03-29T16:49:39;6.70;;;2.10;;
84757;SDS011;74981;52.476;16.656;2024-03-29T16:54:42;7.30;;;1.50;;
84757;SDS011;74981;52.476;16.656;2024-03-29T16:59:44;5.60;;;2.20;;
84757;SDS011;74981;52.476;16.656;2024-03-29T17:04:47;3.70;;;1.80;;
84757;SDS011;74981;52.476;16.656;2024-03-29T17:09:50;5.90;;;2.40;;
84757;SDS011;74981;52.476;16.656;2024-03-29T17:14:52;6.20;;;2.40;;
84757;SDS011;74981;52.476;16.656;2024-03-29T17:19:55;5.10;;;2.10;;
84757;SDS011;74981;52.476;16.656;2024-03-29T17:24:58;6.50;;;2.80;;
84757;SDS011;74981;52.476;16.656;2024-03-29T17:30:00;9.90;;;3.20;;
84757;SDS011;74981;52.476;16.656;2024-03-29T17:35:03;12.00;;;3.20;;
84757;SDS011;74981;52.476;16.656;2024-03-29T17:40:08;6.40;;;1.90;;
84757;SDS011;74981;52.476;16.656;2024-03-29T17:45:11;7.90;;;2.60;;
84757;SDS011;74981;52.476;16.656;2024-03-29T17:50:13;24.50;;;6.50;;
84757;SDS011;74981;52.476;16.656;2024-03-29T17:55:16;11.70;;;3.90;;
84757;SDS011;74981;52.476;16.656;2024-03-29T18:00:19;8.00;;;3.60;;
84757;SDS011;74981;52.476;16.656;2024-03-29T18:05:21;15.40;;;4.30;;
84757;SDS011;74981;52.476;16.656;2024-03-29T18:10:24;7.00;;;3.00;;
84757;SDS011;74981;52.476;16.656;2024-03-29T18:15:26;9.50;;;3.20;;
84757;SDS011;74981;52.476;16.656;2024-03-29T18:20:29;16.90;;;5.60;;
84757;SDS011;74981;52.476;16.656;2024-03-29T18:25:31;15.00;;;6.20;;
84757;SDS011;74981;52.476;16.656;2024-03-29T18:30:34;12.50;;;6.50;;
84757;SDS011;74981;52.476;16.656;2024-03-29T18:35:36;26.80;;;8.40;;
84757;SDS011;74981;52.476;16.656;2024-03-29T18:40:39;21.10;;;7.30;;
84757;SDS011;74981;52.476;16.656;2024-03-29T18:45:41;12.90;;;6.60;;
84757;SDS011;74981;52.476;16.656;2024-03-29T18:50:44;24.10;;;7.70;;
84757;SDS011;74981;52.476;16.656;2024-03-29T18:55:55;21.30;;;8.90;;
84757;SDS011;74981;52.476;16.656;2024-03-29T19:00:58;25.40;;;7.60;;
84757;SDS011;74981;52.476;16.656;2024-03-29T19:06:01;18.60;;;6.10;;
84757;SDS011;74981;52.476;16.656;2024-03-29T19:11:04;25.80;;;8.50;;
84757;SDS011;74981;52.476;16.656;2024-03-29T19:16:07;13.90;;;5.80;;
84757;SDS011;74981;52.476;16.656;2024-03-29T19:21:09;11.00;;;5.10;;
84757;SDS011;74981;52.476;16.656;2024-03-29T19:26:12;28.00;;;7.70;;
84757;SDS011;74981;52.476;16.656;2024-03-29T19:31:14;10.40;;;3.70;;
84757;SDS011;74981;52.476;16.656;2024-03-29T19:36:16;10.90;;;4.40;;
84757;SDS011;74981;52.476;16.656;2024-03-29T19:41:19;10.30;;;3.90;;
84757;SDS011;74981;52.476;16.656;2024-03-29T19:46:22;11.80;;;3.90;;
84757;SDS011;74981;52.476;16.656;2024-03-29T19:51:24;13.90;;;5.10;;
84757;SDS011;74981;52.476;16.656;2024-03-29T19:56:27;9.50;;;4.00;;
84757;SDS011;74981;52.476;16.656;2024-03-29T20:01:29;8.40;;;3.90;;
84757;SDS011;74981;52.476;16.656;2024-03-29T20:06:33;6.60;;;3.00;;
84757;SDS011;74981;52.476;16.656;2024-03-29T20:11:36;10.40;;;3.90;;
84757;SDS011;74981;52.476;16.656;2024-03-29T20:16:39;10.90;;;4.00;;
84757;SDS011;74981;52.476;16.656;2024-03-29T20:21:41;11.20;;;4.70;;
84757;SDS011;74981;52.476;16.656;2024-03-29T20:26:43;13.20;;;4.70;;
84757;SDS011;74981;52.476;16.656;2024-03-29T20:31:46;8.60;;;4.50;;
84757;SDS011;74981;52.476;16.656;2024-03-29T20:36:48;8.60;;;2.70;;
84757;SDS011;74981;52.476;16.656;2024-03-29T20:41:51;7.00;;;3.10;;
84757;SDS011;74981;52.476;16.656;2024-03-29T20:46:53;7.40;;;3.10;;
84757;SDS011;74981;52.476;16.656;2024-03-29T20:51:56;5.50;;;2.40;;
84757;SDS011;74981;52.476;16.656;2024-03-29T20:56:58;6.40;;;3.10;;
84757;SDS011;74981;52.476;16.656;2024-03-29T21:02:01;6.00;;;3.40;;
84757;SDS011;74981;52.476;16.656;2024-03-29T21:07:04;6.90;;;2.90;;
84757;SDS011;74981;52.476;16.656;2024-03-29T21:12:06;9.20;;;3.30;;
84757;SDS011;74981;52.476;16.656;2024-03-29T21:17:09;27.80;;;7.50;;
84757;SDS011;74981;52.476;16.656;2024-03-29T21:22:11;34.40;;;9.30;;
84757;SDS011;74981;52.476;16.656;2024-03-29T21:27:14;28.90;;;7.90;;
84757;SDS011;74981;52.476;16.656;2024-03-29T21:32:17;16.40;;;5.20;;
84757;SDS011;74981;52.476;16.656;2024-03-29T21:37:19;9.00;;;4.10;;
84757;SDS011;74981;52.476;16.656;2024-03-29T21:42:22;8.90;;;3.70;;
84757;SDS011;74981;52.476;16.656;2024-03-29T21:47:25;7.30;;;3.50;;
84757;SDS011;74981;52.476;16.656;2024-03-29T21:52:27;7.60;;;3.50;;
84757;SDS011;74981;52.476;16.656;2024-03-29T21:57:30;7.80;;;3.30;;
84757;SDS011;74981;52.476;16.656;2024-03-29T22:02:32;9.00;;;4.00;;
84757;SDS011;74981;52.476;16.656;2024-03-29T22:07:35;7.70;;;3.50;;
84757;SDS011;74981;52.476;16.656;2024-03-29T22:12:37;6.70;;;2.80;;
84757;SDS011;74981;52.476;16.656;2024-03-29T22:17:39;7.80;;;3.40;;
84757;SDS011;74981;52.476;16.656;2024-03-29T22:22:42;10.10;;;3.90;;
84757;SDS011;74981;52.476;16.656;2024-03-29T22:27:45;11.30;;;3.90;;
84757;SDS011;74981;52.476;16.656;2024-03-29T22:32:48;10.60;;;4.80;;
84757;SDS011;74981;52.476;16.656;2024-03-29T22:37:50;10.00;;;4.60;;
84757;SDS011;74981;52.476;16.656;2024-03-29T22:42:53;9.80;;;4.00;;
84757;SDS011;74981;52.476;16.656;2024-03-29T22:47:55;10.30;;;4.20;;
84757;SDS011;74981;52.476;16.656;2024-03-29T22:52:57;10.40;;;4.30;;
84757;SDS011;74981;52.476;16.656;2024-03-29T22:58:00;11.40;;;4.60;;
84757;SDS011;74981;52.476;16.656;2024-03-29T23:03:03;12.00;;;4.70;;
84757;SDS011;74981;52.476;16.656;2024-03-29T23:08:06;13.40;;;4.60;;
84757;SDS011;74981;52.476;16.656;2024-03-29T23:13:09;10.50;;;4.70;;
84757;SDS011;74981;52.476;16.656;2024-03-29T23:18:11;14.10;;;4.30;;
84757;SDS011;74981;52.476;16.656;2024-03-29T23:23:13;19.30;;;10.00;;
84757;SDS011;74981;52.476;16.656;2024-03-29T23:28:16;13.50;;;6.30;;
84757;SDS011;74981;52.476;16.656;2024-03-29T23:33:19;14.80;;;6.00;;
84757;SDS011;74981;52.476;16.656;2024-03-29T23:38:21;16.40;;;6.50;;
84757;SDS011;74981;52.476;16.656;2024-03-29T23:43:23;11.80;;;5.90;;
84757;SDS011;74981;52.476;16.656;2024-03-29T23:48:27;14.70;;;4.70;;
84757;SDS011;74981;52.476;16.656;2024-03-29T23:53:30;10.60;;;4.70;;
84757;SDS011;74981;52.476;16.656;2024-03-29T23:58:33;13.40;;;6.90;;
